Terminal Aerodrome Forecast
Issued by NWS Lake Charles, LA

Home | Current Version | Previous Version | Text Only | Print | Product List | Glossary On
Versions: 1 2 3 4 5 6 7 8 9 10 11 12 13 14 15 16 17 18
000
FTUS44 KLCH 191100 AAA
TAFAEX
TAF AMD
KAEX 191157Z 1912/2012 00000KT P6SM SCT015
      TEMPO 1912/1913 6SM BR
     FM191500 10005KT P6SM SCT025
     FM191800 11010KT P6SM SCT250
     FM200000 13007KT P6SM SKC=

USA.gov is the U.S. government's official web portal to all federal, state and local government web resources and services.